^^
Datos históricos de la estación: Murcia-Puente Tocinos
Diario Informe para Junio 28, 2019 Unidades:  Métrico    Ingés   Ambas
Diario Semanal Mensual Anual
  Máxima: Mínima: Promedio:
Temperatura: 23.7 °C 12.2 °C 18 °C
Punto de rocio: 10 °C 4.2 °C 7.5 °C
Humedad: 81.8% 29.1% 54%
Velocidad viento: 16.4km/h 0km/h 7km/h
Racha viento: 28.2km/h - -
Viento- - ESE
Presión: 1023.9 hPa 1017.4 hPa -
Precipitación: 0.0 mm    
 
 
Tabla de datos para Junio 28, 2019
Hora Temperatura Punto de rocio Presión Viento Velocidad viento Racha viento Humedad Intensidad lluvia(por hora) Nubes
00:04 15 °C 10 °C 1023.9 hPa NE 7.6 km/h 11.3 km/h 72% 0.0 mm
00:09 15 °C 10 °C 1023.9 hPa NE 7.8 km/h 11.3 km/h 72% 0.0 mm
00:14 15 °C 10 °C 1023.9 hPa NE 8.4 km/h 11.3 km/h 72% 0.0 mm
00:19 15 °C 9.8 °C 1023.9 hPa NE 7.8 km/h 11.3 km/h 71.1% 0.0 mm
00:24 15.1 °C 9.8 °C 1023.8 hPa NE 6.5 km/h 10 km/h 71% 0.0 mm
00:29 15.1 °C 9.9 °C 1023.8 hPa NE 6.5 km/h 11.1 km/h 71% 0.0 mm
00:34 15.1 °C 9.9 °C 1023.8 hPa NE 6.5 km/h 11.3 km/h 70.8% 0.0 mm
00:39 15.1 °C 9.8 °C 1023.8 hPa ENE 5.4 km/h 9.7 km/h 70.7% 0.0 mm
00:44 15.1 °C 9.9 °C 1023.8 hPa Este 3.2 km/h 9.5 km/h 71.1% 0.0 mm
00:49 14.9 °C 9.9 °C 1023.8 hPa Este 3.8 km/h 9.7 km/h 72% 0.0 mm
00:54 14.8 °C 9.8 °C 1023.7 hPa Este 5 km/h 8 km/h 72% 0.0 mm
00:59 14.7 °C 9.8 °C 1023.7 hPa ENE 4.1 km/h 6.4 km/h 72.2% 0.0 mm
01:04 14.7 °C 9.7 °C 1023.7 hPa ENE 2.9 km/h 7.4 km/h 71.9% 0.0 mm
01:09 14.7 °C 9.7 °C 1023.6 hPa ENE 3 km/h 8 km/h 71.9% 0.0 mm
01:14 14.7 °C 9.7 °C 1023.6 hPa NE 3.2 km/h 8 km/h 72% 0.0 mm
01:19 14.7 °C 9.7 °C 1023.7 hPa NE 3.7 km/h 8 km/h 72% 0.0 mm
01:24 14.6 °C 9.6 °C 1023.7 hPa NE 4.7 km/h 8 km/h 72% 0.0 mm
01:29 14.6 °C 9.6 °C 1023.7 hPa NE 4.2 km/h 5.8 km/h 72% 0.0 mm
01:34 14.6 °C 9.7 °C 1023.7 hPa NE 3.2 km/h 6.4 km/h 72.3% 0.0 mm
01:39 14.5 °C 9.3 °C 1023.6 hPa NE 3.2 km/h 6.4 km/h 71.4% 0.0 mm
01:44 14.4 °C 8.8 °C 1023.6 hPa Este 3.2 km/h 6.4 km/h 69.1% 0.0 mm
01:49 14.4 °C 8.6 °C 1023.6 hPa Este 3.1 km/h 6.4 km/h 68.2% 0.0 mm
01:54 14.3 °C 8.5 °C 1023.6 hPa Este 2.9 km/h 6.4 km/h 68% 0.0 mm
01:59 14.3 °C 8.4 °C 1023.6 hPa Este 1.7 km/h 3.2 km/h 68% 0.0 mm
02:04 14.3 °C 8.4 °C 1023.6 hPa Calm     67.8% 0.0 mm
02:09 14.2 °C 8.3 °C 1023.5 hPa Calm     67.6% 0.0 mm
02:14 14.3 °C 8.5 °C 1023.5 hPa Calm     68.2% 0.0 mm
02:19 14.3 °C 8.6 °C 1023.5 hPa Calm     68.6% 0.0 mm
02:24 14.3 °C 8.6 °C 1023.4 hPa Calm     68.7% 0.0 mm
02:29 14.3 °C 8.7 °C 1023.4 hPa Calm     69% 0.0 mm
02:34 14.2 °C 8.5 °C 1023.4 hPa Calm     68.7% 0.0 mm
02:39 14.2 °C 8.5 °C 1023.2 hPa Calm     68.5% 0.0 mm
02:44 14.1 °C 8.7 °C 1023.2 hPa Calm     69.7% 0.0 mm
02:49 14.1 °C 8.7 °C 1023.2 hPa Calm     70% 0.0 mm
02:54 14.1 °C 8.8 °C 1023.1 hPa Calm     70.4% 0.0 mm
02:59 14.1 °C 9.1 °C 1023.1 hPa Calm     71.8% 0.0 mm
03:04 14 °C 9 °C 1023.1 hPa Calm     71.5% 0.0 mm
03:09 14 °C 9.1 °C 1022.9 hPa Calm     72.1% 0.0 mm
03:14 14 °C 9.2 °C 1022.9 hPa Calm     73% 0.0 mm
03:19 14 °C 9.2 °C 1022.9 hPa Calm   4.7 km/h 73% 0.0 mm
03:24 14 °C 9.2 °C 1022.7 hPa Calm   4.8 km/h 73% 0.0 mm
03:29 14 °C 9.2 °C 1022.7 hPa Calm     73% 0.0 mm
03:34 13.9 °C 9.1 °C 1022.7 hPa Calm     72.9% 0.0 mm
03:39 13.9 °C 8.9 °C 1022.7 hPa Calm   5.6 km/h 72% 0.0 mm
03:44 13.8 °C 8.8 °C 1022.7 hPa Calm   7.4 km/h 71.9% 0.0 mm
03:49 13.7 °C 8.6 °C 1022.7 hPa ESE 1.2 km/h 8 km/h 71% 0.0 mm
03:54 13.7 °C 8.6 °C 1022.5 hPa SE 3.9 km/h 8 km/h 71.4% 0.0 mm
03:59 13.5 °C 8.8 °C 1022.5 hPa SSE 4.2 km/h 10 km/h 73% 0.0 mm
04:04 13.4 °C 8.9 °C 1022.5 hPa SSE 4.6 km/h 9.7 km/h 74.3% 0.0 mm
04:09 13.4 °C 9.2 °C 1022.5 hPa Sur 5 km/h 9.7 km/h 75.5% 0.0 mm
04:14 13.4 °C 9.3 °C 1022.5 hPa Sur 5.8 km/h 8.4 km/h 76.2% 0.0 mm
04:19 13.5 °C 9.5 °C 1022.6 hPa Sur 5.5 km/h 8.4 km/h 77% 0.0 mm
04:24 13.4 °C 9.4 °C 1022.6 hPa Sur 5 km/h 8 km/h 77% 0.0 mm
04:29 13.4 °C 9.2 °C 1022.6 hPa SSE 4.7 km/h 8 km/h 75.6% 0.0 mm
04:34 13.3 °C 9 °C 1022.6 hPa SSE 3.9 km/h 6.4 km/h 75.1% 0.0 mm
04:39 13.3 °C 9.2 °C 1022.4 hPa SSE 3.6 km/h 6.4 km/h 76.1% 0.0 mm
04:44 13.3 °C 9.4 °C 1022.4 hPa Sur 2.9 km/h 7.4 km/h 77.3% 0.0 mm
04:49 13.3 °C 9.6 °C 1022.4 hPa SSO 3.5 km/h 8 km/h 78% 0.0 mm
04:54 13.3 °C 9.6 °C 1022.3 hPa SSO 4.7 km/h 9.3 km/h 78.2% 0.0 mm
04:59 13.3 °C 9.7 °C 1022.3 hPa Sur 4.8 km/h 9.7 km/h 79% 0.0 mm
05:04 13.3 °C 9.7 °C 1022.3 hPa Sur 5 km/h 8 km/h 79% 0.0 mm
05:09 13.3 °C 9.7 °C 1022.2 hPa Sur 4.1 km/h 8 km/h 79% 0.0 mm
05:14 13.3 °C 9.7 °C 1022.2 hPa Sur 2.2 km/h 7.4 km/h 78.9% 0.0 mm
05:19 13.2 °C 9.5 °C 1022.2 hPa Sur 2.4 km/h 8 km/h 78% 0.0 mm
05:24 13.2 °C 9.5 °C 1022.1 hPa Sur 2.9 km/h 4.8 km/h 78.1% 0.0 mm
05:29 13.2 °C 9.3 °C 1022.1 hPa Sur 2.9 km/h 6.4 km/h 77.6% 0.0 mm
05:34 13.1 °C 9.2 °C 1022.3 hPa Sur 2.9 km/h 8 km/h 77% 0.0 mm
05:39 13 °C 9.1 °C 1022.3 hPa Sur 2.7 km/h 8 km/h 77% 0.0 mm
05:44 12.9 °C 8.8 °C 1022.3 hPa SSE 2.2 km/h 7.4 km/h 76.3% 0.0 mm
05:49 12.8 °C 8.9 °C 1022.3 hPa SSE 2.6 km/h 8 km/h 76.8% 0.0 mm
05:54 12.8 °C 9 °C 1022.2 hPa SSE 3.2 km/h 6.4 km/h 78% 0.0 mm
05:59 12.7 °C 9.1 °C 1022.2 hPa SSE 3.1 km/h 7.6 km/h 79% 0.0 mm
06:04 12.8 °C 9.4 °C 1022.2 hPa Sur 2.9 km/h 8 km/h 80.2% 0.0 mm
06:09 12.8 °C 9.6 °C 1022.0 hPa Sur 3.2 km/h 8 km/h 81% 0.0 mm
06:14 12.8 °C 9.6 °C 1022.0 hPa Sur 3.9 km/h 6.4 km/h 81% 0.0 mm
06:19 12.8 °C 9.7 °C 1022.0 hPa Sur 3.3 km/h 5.6 km/h 81% 0.0 mm
06:24 12.9 °C 9.9 °C 1021.9 hPa SSO 2.2 km/h 7.4 km/h 81.8% 0.0 mm
06:29 12.9 °C 9.7 °C 1021.9 hPa SSE 3 km/h 8.4 km/h 81.1% 0.0 mm
06:34 12.8 °C 9.4 °C 1021.9 hPa SSE 4.7 km/h 9.3 km/h 79.7% 0.0 mm
06:39 12.7 °C 9.2 °C 1021.9 hPa SSE 4.7 km/h 9.7 km/h 79% 0.0 mm
06:44 12.6 °C 9 °C 1021.9 hPa Sur 4.7 km/h 8 km/h 79% 0.0 mm
06:49 12.4 °C 8.9 °C 1021.9 hPa SSE 4.7 km/h 8.4 km/h 79% 0.0 mm
06:54 12.3 °C 8.8 °C 1021.8 hPa SSE 4.7 km/h 8.7 km/h 79% 0.0 mm
06:59 12.2 °C 8.8 °C 1021.8 hPa Sur 5.1 km/h 9.7 km/h 79.4% 0.0 mm
07:04 12.2 °C 8.8 °C 1021.9 hPa Sur 5.8 km/h 9.7 km/h 80% 0.0 mm
07:09 12.2 °C 8.9 °C 1021.9 hPa Sur 5.5 km/h 11.1 km/h 80.4% 0.0 mm
07:14 12.3 °C 9.1 °C 1021.9 hPa Sur 5 km/h 11.3 km/h 81% 0.0 mm
07:19 12.3 °C 9.2 °C 1021.9 hPa SSO 5.4 km/h 10 km/h 81% 0.0 mm
07:24 12.4 °C 9.2 °C 1021.9 hPa SSO 6.5 km/h 10 km/h 81% 0.0 mm
07:29 12.4 °C 9.3 °C 1021.9 hPa SSO 6.3 km/h 11.3 km/h 81% 0.0 mm
07:34 12.5 °C 9.3 °C 1022.1 hPa SO 5.8 km/h 11.3 km/h 81% 0.0 mm
07:39 12.5 °C 9.3 °C 1022.1 hPa SO 6.1 km/h 13 km/h 81% 0.0 mm
07:44 12.6 °C 9.4 °C 1022.1 hPa SO 6.9 km/h 12.9 km/h 81% 0.0 mm
07:49 12.7 °C 9.5 °C 1022.2 hPa SO 6.6 km/h 11.3 km/h 81% 0.0 mm
07:54 12.7 °C 9.5 °C 1022.2 hPa SO 5.8 km/h 11.3 km/h 81% 0.0 mm
07:59 12.8 °C 9.6 °C 1022.2 hPa SO 5.8 km/h 11.9 km/h 81% 0.0 mm
08:04 12.8 °C 9.5 °C 1022.2 hPa SO 5.8 km/h 11.9 km/h 80.3% 0.0 mm
08:09 12.9 °C 9.6 °C 1022.1 hPa SO 6.1 km/h 11.9 km/h 80% 0.0 mm
08:14 13 °C 9.6 °C 1022.1 hPa SO 6.9 km/h 11.9 km/h 80% 0.0 mm
08:19 13.1 °C 9.7 °C 1022.1 hPa SO 7.1 km/h 13.7 km/h 80% 0.0 mm
08:24 13.2 °C 9.7 °C 1022.1 hPa SO 7.6 km/h 14.5 km/h 79.7% 0.0 mm
08:29 13.3 °C 9.7 °C 1022.1 hPa OSO 7.4 km/h 13 km/h 78.6% 0.0 mm
08:34 13.4 °C 9.5 °C 1022.2 hPa OSO 6.9 km/h 12.9 km/h 77.1% 0.0 mm
08:39 13.5 °C 9.4 °C 1022.2 hPa OSO 6.9 km/h 11.3 km/h 76.2% 0.0 mm
08:44 13.7 °C 9.3 °C 1022.2 hPa OSO 6.9 km/h 11.3 km/h 75% 0.0 mm
08:49 13.8 °C 9.3 °C 1022.2 hPa OSO 6.9 km/h 11.9 km/h 74.2% 0.0 mm
08:54 13.9 °C 9.2 °C 1022.1 hPa SO 6.9 km/h 11.3 km/h 73.3% 0.0 mm
08:59 14.1 °C 9.3 °C 1022.1 hPa SSO 6.7 km/h 11.1 km/h 73% 0.0 mm
09:04 14.2 °C 9.2 °C 1022.1 hPa SSO 6.5 km/h 11.3 km/h 71.7% 0.0 mm
09:09 14.4 °C 9.2 °C 1022.1 hPa SSO 6.3 km/h 9.7 km/h 71% 0.0 mm
09:14 14.6 °C 9.2 °C 1022.1 hPa SSO 5.8 km/h 8.4 km/h 70.2% 0.0 mm
09:19 14.7 °C 9.1 °C 1022.1 hPa SO 5.5 km/h 9.5 km/h 69.2% 0.0 mm
09:24 14.8 °C 9.2 °C 1022.0 hPa Oeste 5 km/h 9.7 km/h 69% 0.0 mm
09:29 14.9 °C 9.2 °C 1022.0 hPa Oeste 4.9 km/h 8.7 km/h 68.7% 0.0 mm
09:34 15.1 °C 9.2 °C 1022.0 hPa OSO 4.7 km/h 9.7 km/h 68% 0.0 mm
09:39 15.2 °C 9.4 °C 1021.9 hPa OSO 4.8 km/h 9.7 km/h 68% 0.0 mm
09:44 15.5 °C 9.5 °C 1021.9 hPa Oeste 5 km/h 8 km/h 67.6% 0.0 mm
09:49 15.7 °C 9.6 °C 1021.9 hPa OSO 4.3 km/h 6.4 km/h 66.7% 0.0 mm
09:54 16 °C 9.3 °C 1021.8 hPa ONO 2.9 km/h 9.5 km/h 64.5% 0.0 mm
09:59 16.2 °C 9.3 °C 1021.8 hPa Oeste 3.8 km/h 9.7 km/h 63.8% 0.0 mm
10:04 16.3 °C 9.2 °C 1021.8 hPa OSO 5 km/h 11.1 km/h 63% 0.0 mm
10:09 16.4 °C 9.2 °C 1021.8 hPa SO 5 km/h 11.3 km/h 62.4% 0.0 mm
10:14 16.6 °C 9.2 °C 1021.8 hPa SO 5 km/h 9.5 km/h 61.9% 0.0 mm
10:19 16.8 °C 9.3 °C 1021.8 hPa OSO 4.9 km/h 9.7 km/h 61% 0.0 mm
10:24 17.1 °C 8.8 °C 1021.7 hPa SSO 4.7 km/h 10 km/h 58.4% 0.0 mm
10:29 17.1 °C 8.7 °C 1021.7 hPa SO 4.8 km/h 9.7 km/h 57.8% 0.0 mm
10:34 17.3 °C 8.8 °C 1021.7 hPa SSO 5 km/h 8.4 km/h 57.6% 0.0 mm
10:39 17.6 °C 8.8 °C 1021.6 hPa SSE 4.9 km/h 9.5 km/h 56.4% 0.0 mm
10:44 17.8 °C 8.6 °C 1021.6 hPa SSE 4.7 km/h 10 km/h 54.8% 0.0 mm
10:49 18.1 °C 8.6 °C 1021.6 hPa Sur 5 km/h 9.7 km/h 53.8% 0.0 mm
10:54 18.3 °C 8.6 °C 1021.6 hPa SSO 5.8 km/h 9.7 km/h 53.3% 0.0 mm
10:59 18.5 °C 8.6 °C 1021.6 hPa Oeste 5 km/h 9.5 km/h 52.5% 0.0 mm
11:04 18.5 °C 8.5 °C 1021.7 hPa ONO 3.9 km/h 9.7 km/h 52.2% 0.0 mm
11:09 18.7 °C 8.6 °C 1021.7 hPa Sur 4.1 km/h 8 km/h 52.2% 0.0 mm
11:14 18.8 °C 8.7 °C 1021.7 hPa SE 4.7 km/h 8 km/h 52% 0.0 mm
11:19 19.2 °C 8.9 °C 1021.7 hPa NE 4.4 km/h 8.4 km/h 51.3% 0.0 mm
11:24 19.5 °C 8.7 °C 1021.7 hPa NE 3.9 km/h 9.5 km/h 49.7% 0.0 mm
11:29 19.6 °C 8.6 °C 1021.7 hPa ENE 4.4 km/h 9.7 km/h 49% 0.0 mm
11:34 19.7 °C 8.5 °C 1021.7 hPa ENE 5.8 km/h 9.7 km/h 48.3% 0.0 mm
11:39 19.9 °C 8.7 °C 1021.6 hPa SSO 5.4 km/h 9.7 km/h 48.4% 0.0 mm
11:44 20.2 °C 9 °C 1021.6 hPa NNE 4.6 km/h 11.9 km/h 48.4% 0.0 mm
11:49 20.3 °C 8.9 °C 1021.6 hPa NNE 4.7 km/h 11.3 km/h 48% 0.0 mm
11:54 20.5 °C 9.1 °C 1021.6 hPa Este 5 km/h 9.7 km/h 47.9% 0.0 mm
11:59 20.8 °C 9.1 °C 1021.6 hPa ESE 4.9 km/h 9.7 km/h 47% 0.0 mm
12:04 21.2 °C 9.1 °C 1021.6 hPa North 4.6 km/h 9.5 km/h 46.2% 0.0 mm
12:09 21.3 °C 9.2 °C 1021.4 hPa NE 4.7 km/h 11.9 km/h 46% 0.0 mm
12:14 21.2 °C 9.1 °C 1021.4 hPa ENE 4.7 km/h 11.3 km/h 46% 0.0 mm
12:19 21.3 °C 9.2 °C 1021.4 hPa ENE 4.8 km/h 11.3 km/h 46% 0.0 mm
12:24 21.6 °C 9.3 °C 1021.3 hPa NNE 5 km/h 11.9 km/h 45.5% 0.0 mm
12:29 21.6 °C 9.2 °C 1021.3 hPa Este 5.2 km/h 11.3 km/h 45% 0.0 mm
12:34 21.7 °C 8.9 °C 1021.3 hPa NE 5.8 km/h 11.1 km/h 44.2% 0.0 mm
12:39 21.9 °C 8.6 °C 1021.1 hPa NE 5.8 km/h 11.9 km/h 42.6% 0.0 mm
12:44 22 °C 8.3 °C 1021.1 hPa NE 5.8 km/h 13.7 km/h 41.4% 0.0 mm
12:49 22 °C 7.7 °C 1021.1 hPa ENE 6.1 km/h 14.5 km/h 40% 0.0 mm
12:54 22 °C 7.8 °C 1021.0 hPa NE 6.9 km/h 16.1 km/h 40% 0.0 mm
12:59 22.1 °C 7.3 °C 1021.0 hPa NNE 8 km/h 20.4 km/h 38.6% 0.0 mm
13:04 22 °C 7.1 °C 1021.0 hPa NNE 9.5 km/h 20.9 km/h 38.3% 0.0 mm
13:09 22.1 °C 6.5 °C 1020.9 hPa NE 10.4 km/h 22.5 km/h 36.4% 0.0 mm
13:14 22.2 °C 7 °C 1020.9 hPa NE 12.2 km/h 22.5 km/h 37.5% 0.0 mm
13:19 22.3 °C 7.3 °C 1020.9 hPa NNE 11.6 km/h 20.9 km/h 37.9% 0.0 mm
13:24 22.4 °C 7.3 °C 1020.7 hPa ENE 10.3 km/h 21.7 km/h 37.8% 0.0 mm
13:29 22.5 °C 7.4 °C 1020.7 hPa NE 10.8 km/h 22.5 km/h 37.9% 0.0 mm
13:34 22.4 °C 7.4 °C 1020.7 hPa NE 11.9 km/h 22.5 km/h 38% 0.0 mm
13:39 22.4 °C 7.4 °C 1020.5 hPa NE 11.9 km/h 20.9 km/h 37.8% 0.0 mm
13:44 22.6 °C 7.2 °C 1020.5 hPa NE 11.9 km/h 20.9 km/h 37.1% 0.0 mm
13:49 22.8 °C 7 °C 1020.5 hPa NE 11.9 km/h 27.8 km/h 36% 0.0 mm
13:54 22.8 °C 6.6 °C 1020.4 hPa ENE 11.9 km/h 27.4 km/h 35% 0.0 mm
13:59 22.9 °C 6.3 °C 1020.4 hPa NE 12.7 km/h 24.1 km/h 34.3% 0.0 mm
14:04 22.8 °C 5.7 °C 1020.4 hPa NNE 14 km/h 25.9 km/h 33.2% 0.0 mm
14:09 22.7 °C 5.6 °C 1020.3 hPa NE 14.5 km/h 28.2 km/h 32.9% 0.0 mm
14:14 22.8 °C 5.3 °C 1020.3 hPa Este 15.6 km/h 27.4 km/h 32.2% 0.0 mm
14:19 23 °C 5.1 °C 1020.3 hPa ENE 14.5 km/h 28.2 km/h 31.3% 0.0 mm
14:24 23 °C 4.9 °C 1020.1 hPa ENE 11.9 km/h 27.4 km/h 30.9% 0.0 mm
14:29 23 °C 4.7 °C 1020.1 hPa NE 12.6 km/h 25.9 km/h 30.4% 0.0 mm
14:34 23 °C 4.9 °C 1020.1 hPa NE 14 km/h 25.9 km/h 31% 0.0 mm
14:39 23.2 °C 5.1 °C 1019.9 hPa NE 13.9 km/h 25.7 km/h 30.9% 0.0 mm
14:44 23.2 °C 4.7 °C 1019.9 hPa NE 13.7 km/h 25.9 km/h 30.1% 0.0 mm
14:49 23.1 °C 4.9 °C 1019.9 hPa NNE 14 km/h 26.2 km/h 30.6% 0.0 mm
14:54 23 °C 4.7 °C 1019.8 hPa NE 14.8 km/h 27.4 km/h 30.5% 0.0 mm
14:59 23.1 °C 4.9 °C 1019.8 hPa NE 15.1 km/h 27.4 km/h 30.7% 0.0 mm
15:04 23 °C 4.5 °C 1019.8 hPa NE 15.6 km/h 26.2 km/h 30.1% 0.0 mm
15:09 22.9 °C 4.4 °C 1019.7 hPa NE 15.6 km/h 25.7 km/h 30.1% 0.0 mm
15:14 23.1 °C 4.9 °C 1019.7 hPa ENE 15.6 km/h 24.1 km/h 30.6% 0.0 mm
15:19 23.2 °C 4.6 °C 1019.7 hPa NE 14.6 km/h 25.9 km/h 30% 0.0 mm
15:24 23.2 °C 4.6 °C 1019.5 hPa NE 12.2 km/h 25.9 km/h 29.9% 0.0 mm
15:29 23.2 °C 4.6 °C 1019.5 hPa NE 12.8 km/h 24.1 km/h 29.9% 0.0 mm
15:34 23.4 °C 4.5 °C 1019.5 hPa NE 14 km/h 24.1 km/h 29.4% 0.0 mm
15:39 23.3 °C 4.7 °C 1019.3 hPa NE 13.5 km/h 24.1 km/h 29.8% 0.0 mm
15:44 23.4 °C 4.6 °C 1019.3 hPa NE 12.2 km/h 22.2 km/h 29.6% 0.0 mm
15:49 23.4 °C 4.3 °C 1019.3 hPa NE 12.2 km/h 24.1 km/h 29.1% 0.0 mm
15:54 23.3 °C 4.4 °C 1019.0 hPa NE 12.2 km/h 24.1 km/h 29.2% 0.0 mm
15:59 23.3 °C 4.4 °C 1019.0 hPa NE 12.8 km/h 24.5 km/h 29.3% 0.0 mm
16:04 23.3 °C 4.2 °C 1019.0 hPa NE 13.7 km/h 24.1 km/h 29.1% 0.0 mm
16:09 23.3 °C 4.6 °C 1018.8 hPa NE 13.2 km/h 22.5 km/h 29.7% 0.0 mm
16:14 23.5 °C 4.6 °C 1018.8 hPa Este 12.2 km/h 17.2 km/h 29.3% 0.0 mm
16:19 23.7 °C 5 °C 1018.8 hPa NE 11.5 km/h 20.4 km/h 29.8% 0.0 mm
16:24 23.7 °C 4.7 °C 1018.5 hPa ENE 10 km/h 20.9 km/h 29.3% 0.0 mm
16:29 23.7 °C 4.7 °C 1018.5 hPa NE 10.3 km/h 24.1 km/h 29.1% 0.0 mm
16:34 23.6 °C 4.6 °C 1018.5 hPa NE 11.1 km/h 24.1 km/h 29.1% 0.0 mm
16:39 23.5 °C 4.6 °C 1018.3 hPa NNE 11.4 km/h 22.2 km/h 29.3% 0.0 mm
16:44 23.6 °C 5 °C 1018.3 hPa NE 11.9 km/h 22.5 km/h 30% 0.0 mm
16:49 23.7 °C 4.7 °C 1018.3 hPa NE 12.3 km/h 28.2 km/h 29.3% 0.0 mm
16:54 23.4 °C 4.4 °C 1018.1 hPa NE 13 km/h 27.8 km/h 29.1% 0.0 mm
16:59 23.3 °C 4.4 °C 1018.1 hPa NNE 13.7 km/h 27.4 km/h 29.2% 0.0 mm
17:04 23.3 °C 4.6 °C 1018.1 hPa NE 14.8 km/h 22.5 km/h 29.8% 0.0 mm
17:09 23.5 °C 4.8 °C 1017.9 hPa ENE 13.8 km/h 26.2 km/h 29.8% 0.0 mm
17:14 23.5 °C 4.8 °C 1017.9 hPa NE 11.9 km/h 25.9 km/h 29.8% 0.0 mm
17:19 23.6 °C 4.9 °C 1017.9 hPa NE 12.5 km/h 25.7 km/h 29.9% 0.0 mm
17:24 23.5 °C 4.9 °C 1017.7 hPa NE 14 km/h 24.1 km/h 30% 0.0 mm
17:29 23.6 °C 5 °C 1017.7 hPa NE 13.5 km/h 23.7 km/h 30% 0.0 mm
17:34 23.5 °C 4.9 °C 1017.7 hPa NE 12.2 km/h 24.1 km/h 29.9% 0.0 mm
17:39 23.4 °C 4.8 °C 1017.6 hPa ENE 13 km/h 24.1 km/h 30% 0.0 mm
17:44 23.4 °C 5.1 °C 1017.6 hPa NE 14.8 km/h 24.1 km/h 30.5% 0.0 mm
17:49 23.5 °C 5.4 °C 1017.6 hPa NE 14 km/h 24.1 km/h 31% 0.0 mm
17:54 23.6 °C 5.3 °C 1017.5 hPa NE 12.2 km/h 22.5 km/h 30.8% 0.0 mm
17:59 23.5 °C 5.6 °C 1017.5 hPa NE 12.5 km/h 22.5 km/h 31.5% 0.0 mm
18:04 23.5 °C 5.7 °C 1017.5 hPa NE 13 km/h 27 km/h 31.6% 0.0 mm
18:09 23.5 °C 5.6 °C 1017.4 hPa NE 13.6 km/h 27.4 km/h 31.5% 0.0 mm
18:14 23.2 °C 5.5 °C 1017.4 hPa NE 14.8 km/h 28.2 km/h 31.8% 0.0 mm
18:19 23.1 °C 5.7 °C 1017.4 hPa NE 15.3 km/h 27.4 km/h 32.4% 0.0 mm
18:24 23.2 °C 5.8 °C 1017.4 hPa NE 16.4 km/h 25.7 km/h 32.5% 0.0 mm
18:29 23.2 °C 5.8 °C 1017.4 hPa NE 15.1 km/h 24.5 km/h 32.5% 0.0 mm
18:34 23.2 °C 6 °C 1017.5 hPa ENE 12.2 km/h 24.1 km/h 33% 0.0 mm
18:39 23.1 °C 5.8 °C 1017.5 hPa NE 12.7 km/h 27.8 km/h 32.6% 0.0 mm
18:44 23.1 °C 5.9 °C 1017.5 hPa NE 13.7 km/h 27.4 km/h 32.9% 0.0 mm
18:49 23 °C 5.5 °C 1017.5 hPa NE 13.2 km/h 24.1 km/h 32.2% 0.0 mm
18:54 22.8 °C 5.4 °C 1017.4 hPa NE 12.2 km/h 24.1 km/h 32.2% 0.0 mm
18:59 22.7 °C 5.5 °C 1017.4 hPa NE 12.2 km/h 22.5 km/h 32.7% 0.0 mm
19:04 22.8 °C 5.6 °C 1017.4 hPa NE 12.2 km/h 19.3 km/h 32.6% 0.0 mm
19:09 22.8 °C 5.3 °C 1017.4 hPa ENE 11.4 km/h 22.2 km/h 32% 0.0 mm
19:14 22.7 °C 5.6 °C 1017.4 hPa ENE 9.5 km/h 22.5 km/h 33% 0.0 mm
19:19 22.5 °C 5.4 °C 1017.4 hPa ENE 10 km/h 24.1 km/h 33% 0.0 mm
19:24 22.4 °C 5.6 °C 1017.4 hPa NE 11.1 km/h 24.1 km/h 33.7% 0.0 mm
19:29 22.3 °C 5.5 °C 1017.4 hPa Este 10.4 km/h 24.1 km/h 33.5% 0.0 mm
19:34 22.2 °C 5.5 °C 1017.5 hPa ESE 8.7 km/h 24.1 km/h 34% 0.0 mm
19:39 22.1 °C 5.8 °C 1017.5 hPa Este 9.1 km/h 19.3 km/h 34.7% 0.0 mm
19:44 22.1 °C 5.6 °C 1017.5 hPa ENE 10 km/h 18.5 km/h 34.4% 0.0 mm
19:49 21.9 °C 5.6 °C 1017.5 hPa ENE 9.8 km/h 19.3 km/h 34.8% 0.0 mm
19:54 21.8 °C 5.6 °C 1017.4 hPa NE 9.5 km/h 19.3 km/h 35% 0.0 mm
19:59 21.6 °C 5.5 °C 1017.4 hPa ENE 9.5 km/h 17.7 km/h 35% 0.0 mm
20:04 21.4 °C 5.3 °C 1017.5 hPa ENE 9.5 km/h 16.1 km/h 35% 0.0 mm
20:09 21.3 °C 5.4 °C 1017.5 hPa ENE 9.3 km/h 16.1 km/h 35.5% 0.0 mm
20:14 21.3 °C 5.4 °C 1017.5 hPa ENE 8.7 km/h 14.8 km/h 35.4% 0.0 mm
20:19 21.2 °C 5.5 °C 1017.6 hPa Este 8.2 km/h 14.5 km/h 36% 0.0 mm
20:24 21.2 °C 5.5 °C 1017.6 hPa ENE 6.9 km/h 14.8 km/h 36.1% 0.0 mm
20:29 21 °C 5.8 °C 1017.6 hPa ENE 6.8 km/h 14.5 km/h 37% 0.0 mm
20:34 20.9 °C 5.7 °C 1017.6 hPa ENE 6.5 km/h 11.9 km/h 37% 0.0 mm
20:39 20.8 °C 5.9 °C 1017.6 hPa ENE 6.3 km/h 11.9 km/h 37.8% 0.0 mm
20:44 20.6 °C 5.8 °C 1017.6 hPa Este 5.8 km/h 13 km/h 38% 0.0 mm
20:49 20.3 °C 5.9 °C 1017.8 hPa Este 6 km/h 13 km/h 38.9% 0.0 mm
20:54 20 °C 5.6 °C 1017.8 hPa Este 6.5 km/h 13.7 km/h 39% 0.0 mm
20:59 19.8 °C 5.7 °C 1017.8 hPa NE 5.9 km/h 14.5 km/h 39.9% 0.0 mm
21:04 19.6 °C 5.6 °C 1018.1 hPa ENE 5 km/h 9.5 km/h 40% 0.0 mm
21:09 19.4 °C 5.3 °C 1018.1 hPa ENE 4.9 km/h 9.7 km/h 39.7% 0.0 mm
21:14 19.3 °C 5.1 °C 1018.1 hPa ESE 4.7 km/h 8 km/h 39.2% 0.0 mm
21:19 19.2 °C 4.9 °C 1018.2 hPa ENE 4.4 km/h 8.4 km/h 39% 0.0 mm
21:24 19.1 °C 4.8 °C 1018.2 hPa NE 3.9 km/h 8.4 km/h 39.1% 0.0 mm
21:29 18.9 °C 5 °C 1018.2 hPa NE 4.1 km/h 9.5 km/h 40% 0.0 mm
21:34 18.8 °C 4.9 °C 1018.3 hPa ENE 4.7 km/h 9.7 km/h 40% 0.0 mm
21:39 18.8 °C 5.2 °C 1018.3 hPa NE 5 km/h 9.7 km/h 41% 0.0 mm
21:44 18.7 °C 5.4 °C 1018.3 hPa NE 5.8 km/h 13 km/h 41.8% 0.0 mm
21:49 18.5 °C 5.7 °C 1018.4 hPa NE 6.6 km/h 13 km/h 42.9% 0.0 mm
21:54 18.4 °C 5.6 °C 1018.4 hPa NE 8.4 km/h 13 km/h 43% 0.0 mm
21:59 18.4 °C 5.6 °C 1018.4 hPa ENE 8.1 km/h 15.6 km/h 43% 0.0 mm
22:04 18.3 °C 5.6 °C 1018.4 hPa ENE 7.6 km/h 16.1 km/h 43% 0.0 mm
22:09 18.3 °C 5.8 °C 1018.4 hPa NE 7.4 km/h 14.5 km/h 43.9% 0.0 mm
22:14 18.2 °C 5.8 °C 1018.4 hPa NE 6.9 km/h 13 km/h 44.3% 0.0 mm
22:19 18 °C 6.1 °C 1018.6 hPa NE 6.8 km/h 12.9 km/h 45.7% 0.0 mm
22:24 17.8 °C 6.2 °C 1018.6 hPa NE 6.5 km/h 11.1 km/h 46.4% 0.0 mm
22:29 17.7 °C 6.2 °C 1018.6 hPa NE 6.8 km/h 13.7 km/h 47% 0.0 mm
22:34 17.6 °C 6.2 °C 1018.6 hPa NE 7.6 km/h 14.5 km/h 47% 0.0 mm
22:39 17.6 °C 6.2 °C 1018.6 hPa ENE 7.6 km/h 12.9 km/h 47.1% 0.0 mm
22:44 17.6 °C 6.2 °C 1018.6 hPa NE 7.6 km/h 11.3 km/h 47% 0.0 mm
22:49 17.6 °C 6.3 °C 1018.7 hPa NE 7.2 km/h 11.9 km/h 47.5% 0.0 mm
22:54 17.3 °C 6.7 °C 1018.7 hPa NNE 6.5 km/h 16.7 km/h 49.7% 0.0 mm
22:59 16.9 °C 6.8 °C 1018.7 hPa NE 7.6 km/h 16.1 km/h 51.4% 0.0 mm
23:04 16.7 °C 6.8 °C 1018.8 hPa NNE 9.5 km/h 12.9 km/h 52% 0.0 mm
23:09 16.6 °C 6.9 °C 1018.8 hPa NNE 8.9 km/h 11.3 km/h 52.8% 0.0 mm
23:14 16.4 °C 6.8 °C 1018.8 hPa NE 7.6 km/h 11.3 km/h 53% 0.0 mm
23:19 16.4 °C 7 °C 1018.9 hPa NE 7.2 km/h 11.9 km/h 53.8% 0.0 mm
23:24 16.3 °C 7 °C 1018.9 hPa NE 6.5 km/h 11.3 km/h 54% 0.0 mm
23:29 16.3 °C 6.9 °C 1018.9 hPa NE 6.6 km/h 13 km/h 54% 0.0 mm
23:34 16.3 °C 7 °C 1018.9 hPa NE 6.9 km/h 12.9 km/h 54.1% 0.0 mm
23:39 16.3 °C 7.2 °C 1018.9 hPa North 6.4 km/h 11.3 km/h 55% 0.0 mm
23:44 16.2 °C 7.3 °C 1018.9 hPa North 5 km/h 7.6 km/h 55.7% 0.0 mm
23:49 16.1 °C 7.4 °C 1019.0 hPa North 4.6 km/h 8 km/h 56.4% 0.0 mm
23:54 16 °C 7.6 °C 1019.0 hPa NNE 3.9 km/h 11.1 km/h 57.5% 0.0 mm
23:59 15.9 °C 7.8 °C 1019.0 hPa NE 4.6 km/h 11.3 km/h 58.8% 0.0 mm
Murcia-Puente Tocinos, España
Compliments of Weather Underground - 3 mb

La estación de MeteoMurcia.com, publica sus datos en los siguientes proyectos:

Weather Underground PWS IMURCIAP2 Meteoclimatic www.awekas.at

W3Counter
Web Analytics